Pencer, Minnesota
Current Conditions -  °F | °C
As of 11:54 AM on Monday 24 Nov 2014 (Local Time) from KROX Reporting Station
Broken Clouds Broken Clouds  
Wind Chill: -5°   Ceiling: 1600
Heat Index: 12°   Visibility: 10mi
Dew Point:   Wind: 18mph
Humidity: 79%   Direction: 340°NNW
Pressure: 29.71"   Gusts: NA
Location:  48.7499°N, 95.6399°W
Report Text: KROX 241754Z AUTO 34016KT 10SM BKN016 M11/M14 A2971 RMK AO2
Loading
Personal Weather Stations






























Interactive Weather Map New forecast layout! Learn more

10-Day Weather Forecast

Advertisements
Track Severe Weather on mobile